createdAt,value
2018-07-12T00:01:17.751Z,18.62
2018-07-12T00:02:17.778Z,18.66
2018-07-12T00:04:10.753Z,18.62
2018-07-12T00:05:10.762Z,18.60
2018-07-12T00:07:03.692Z,18.66
2018-07-12T00:08:03.716Z,18.57
2018-07-12T00:09:56.662Z,18.75
2018-07-12T00:10:56.670Z,18.67
2018-07-12T00:12:49.617Z,18.69
2018-07-12T00:13:49.621Z,18.62
2018-07-12T00:15:42.554Z,18.66
2018-07-12T00:16:42.575Z,18.63
2018-07-12T00:18:35.522Z,18.70
2018-07-12T00:19:35.529Z,18.70
2018-07-12T00:21:28.462Z,18.70
2018-07-12T00:22:28.486Z,18.67
2018-07-12T00:24:21.434Z,18.70
2018-07-12T00:25:21.436Z,18.81
2018-07-12T00:27:14.369Z,18.65
2018-07-12T00:28:14.394Z,18.66
2018-07-12T00:30:07.851Z,18.73
2018-07-12T00:31:07.878Z,18.63
2018-07-12T00:33:00.806Z,18.70
2018-07-12T00:34:00.813Z,18.54
2018-07-12T00:35:53.732Z,18.55
2018-07-12T00:36:53.758Z,18.48
2018-07-12T00:38:47.191Z,18.48
2018-07-12T00:39:47.196Z,18.45
2018-07-12T00:41:40.165Z,18.48
2018-07-12T00:42:40.188Z,18.42
2018-07-12T00:44:33.133Z,18.33
2018-07-12T00:45:33.139Z,18.33
2018-07-12T00:47:26.055Z,18.25
2018-07-12T00:48:26.102Z,18.23
2018-07-12T00:50:19.042Z,18.23
2018-07-12T00:51:19.048Z,18.27
2018-07-12T00:53:11.978Z,18.23
2018-07-12T00:54:12.015Z,18.17
2018-07-12T00:56:04.952Z,18.05
2018-07-12T00:57:04.957Z,18.02
2018-07-12T00:58:57.908Z,17.96
2018-07-12T00:59:57.910Z,17.97
2018-07-12T01:01:50.844Z,17.84
2018-07-12T01:02:50.868Z,17.79
2018-07-12T01:04:44.326Z,17.75
2018-07-12T01:05:44.331Z,17.77
2018-07-12T01:07:37.261Z,17.78
2018-07-12T01:08:37.291Z,17.79
2018-07-12T01:10:30.235Z,17.82
2018-07-12T01:11:30.242Z,17.86
2018-07-12T01:13:23.169Z,17.86
2018-07-12T01:14:23.193Z,17.86
2018-07-12T01:16:16.657Z,17.87
2018-07-12T01:17:16.661Z,17.84
2018-07-12T01:19:09.593Z,17.82
2018-07-12T01:20:09.622Z,17.84
2018-07-12T01:22:02.564Z,17.93
2018-07-12T01:23:02.570Z,17.82
2018-07-12T01:24:55.516Z,17.82
2018-07-12T01:25:55.524Z,17.84
2018-07-12T01:27:48.454Z,17.72
2018-07-12T01:28:48.477Z,17.66
2018-07-12T01:30:41.427Z,17.72
2018-07-12T01:31:41.435Z,17.77
2018-07-12T01:33:34.360Z,17.74
2018-07-12T01:34:34.384Z,17.79
2018-07-12T01:36:27.334Z,17.82
2018-07-12T01:37:27.338Z,17.79
2018-07-12T01:39:20.270Z,17.84
2018-07-12T01:40:20.292Z,17.79
2018-07-12T01:42:13.760Z,17.86
2018-07-12T01:43:13.764Z,17.90
2018-07-12T01:45:06.789Z,17.93
2018-07-12T01:46:06.717Z,17.90
2018-07-12T01:47:59.693Z,17.82
2018-07-12T01:48:59.669Z,17.89
2018-07-12T01:50:52.615Z,17.97
2018-07-12T01:51:52.622Z,17.92
2018-07-12T01:53:45.552Z,17.92
2018-07-12T01:54:45.580Z,17.93
2018-07-12T01:56:39.134Z,17.92
2018-07-12T01:57:39.042Z,17.92
2018-07-12T01:59:31.971Z,17.95
2018-07-12T02:00:32.003Z,17.86
2018-07-12T02:02:24.945Z,17.87
2018-07-12T02:03:24.949Z,17.81
2018-07-12T02:05:17.908Z,17.81
2018-07-12T02:06:17.903Z,17.81
2018-07-12T02:08:10.835Z,17.84
2018-07-12T02:09:10.859Z,17.72
2018-07-12T02:11:03.811Z,17.84
2018-07-12T02:12:03.816Z,17.78
2018-07-12T02:13:56.732Z,17.68
2018-07-12T02:14:56.762Z,17.71
2018-07-12T02:16:59.727Z,17.77
2018-07-12T02:17:59.700Z,17.74
2018-07-12T02:19:52.605Z,17.79
2018-07-12T02:20:52.627Z,17.77
2018-07-12T02:22:45.588Z,17.75
2018-07-12T02:23:45.559Z,17.71
2018-07-12T02:25:38.614Z,17.77
2018-07-12T02:26:38.637Z,17.75
2018-07-12T02:28:31.569Z,17.75
2018-07-12T02:29:31.570Z,17.66
2018-07-12T02:31:24.506Z,17.66
2018-07-12T02:32:24.504Z,17.63
2018-07-12T02:34:17.419Z,17.64
2018-07-12T02:35:17.481Z,17.56
2018-07-12T02:37:10.372Z,17.64
2018-07-12T02:38:10.374Z,17.56
2018-07-12T02:40:03.284Z,17.59
2018-07-12T02:41:03.309Z,17.55
2018-07-12T02:42:56.238Z,17.49
2018-07-12T02:43:56.240Z,17.43
2018-07-12T02:45:49.151Z,17.44
2018-07-12T02:46:49.176Z,17.46
2018-07-12T02:48:42.104Z,17.56
2018-07-12T02:49:42.104Z,17.59
2018-07-12T02:51:35.041Z,17.64
2018-07-12T02:52:35.042Z,17.70
2018-07-12T02:54:27.955Z,17.68
2018-07-12T02:55:27.979Z,17.77
2018-07-12T02:57:20.910Z,17.63
2018-07-12T02:58:20.911Z,17.54
2018-07-12T03:00:13.821Z,17.54
2018-07-12T03:01:13.844Z,17.54
2018-07-12T03:03:06.778Z,17.49
2018-07-12T03:04:06.780Z,17.38
2018-07-12T03:05:59.695Z,17.44
2018-07-12T03:06:59.714Z,17.46
2018-07-12T03:08:52.644Z,17.31
2018-07-12T03:09:52.646Z,17.28
2018-07-12T03:11:45.557Z,17.28
2018-07-12T03:12:45.579Z,17.30
2018-07-12T03:14:38.510Z,17.46
2018-07-12T03:15:38.511Z,17.44
2018-07-12T03:17:31.442Z,17.44
2018-07-12T03:18:31.444Z,17.51
2018-07-12T03:20:24.354Z,17.59
2018-07-12T03:21:24.377Z,17.63
2018-07-12T03:23:17.307Z,17.59
2018-07-12T03:24:17.310Z,17.64
2018-07-12T03:26:10.218Z,17.58
2018-07-12T03:27:10.242Z,17.46
2018-07-12T03:29:03.173Z,17.49
2018-07-12T03:30:03.176Z,17.43
2018-07-12T03:31:56.090Z,17.49
2018-07-12T03:32:56.108Z,17.38
2018-07-12T03:34:49.044Z,17.48
2018-07-12T03:35:49.049Z,17.37
2018-07-12T03:37:41.977Z,17.40
2018-07-12T03:38:41.977Z,17.28
2018-07-12T03:40:34.892Z,17.41
2018-07-12T03:41:34.910Z,17.48
2018-07-12T03:43:27.847Z,17.49
2018-07-12T03:44:27.850Z,17.38
2018-07-12T03:46:20.760Z,17.55
2018-07-12T03:47:20.781Z,17.48
2018-07-12T03:49:13.714Z,17.41
2018-07-12T03:50:13.715Z,17.40
2018-07-12T03:52:06.627Z,17.41
2018-07-12T03:53:06.648Z,17.34
2018-07-12T03:54:59.581Z,17.51
2018-07-12T03:55:59.578Z,17.54
2018-07-12T03:57:52.507Z,17.46
2018-07-12T03:58:52.508Z,17.48
2018-07-12T04:00:45.427Z,17.49
2018-07-12T04:01:45.442Z,17.48
2018-07-12T04:03:38.402Z,17.68
2018-07-12T04:04:38.376Z,17.75
2018-07-12T04:06:31.293Z,17.79
2018-07-12T04:07:31.312Z,17.75
2018-07-12T04:09:24.245Z,17.81
2018-07-12T04:10:24.248Z,17.86
2018-07-12T04:12:17.158Z,17.82
2018-07-12T04:13:17.181Z,17.72
2018-07-12T04:15:10.113Z,17.72
2018-07-12T04:16:10.116Z,17.70
2018-07-12T04:18:03.059Z,17.74
2018-07-12T04:19:03.054Z,17.74
2018-07-12T04:20:55.989Z,17.75
2018-07-12T04:21:55.990Z,17.64
2018-07-12T04:23:48.919Z,17.71
2018-07-12T04:24:48.922Z,17.72
2018-07-12T04:26:41.834Z,17.66
2018-07-12T04:27:41.857Z,17.62
2018-07-12T04:29:34.794Z,17.62
2018-07-12T04:30:34.794Z,17.68
2018-07-12T04:32:27.709Z,17.71
2018-07-12T04:33:27.729Z,17.70
2018-07-12T04:35:20.665Z,17.70
2018-07-12T04:36:20.668Z,17.72
2018-07-12T04:38:13.581Z,17.66
2018-07-12T04:39:13.602Z,17.62
2018-07-12T04:41:06.537Z,17.46
2018-07-12T04:42:06.537Z,17.44
2018-07-12T04:43:59.466Z,17.28
2018-07-12T04:44:59.467Z,17.37
2018-07-12T04:46:52.382Z,17.38
2018-07-12T04:47:52.401Z,17.26
2018-07-12T04:49:45.334Z,17.40
2018-07-12T04:50:45.336Z,17.43
2018-07-12T04:52:38.245Z,17.44
2018-07-12T04:53:38.267Z,17.48
2018-07-12T04:55:31.198Z,17.59
2018-07-12T04:56:31.201Z,17.58
2018-07-12T04:58:24.201Z,17.52
2018-07-12T04:59:24.132Z,17.66
2018-07-12T05:01:17.065Z,17.77
2018-07-12T05:02:17.064Z,17.86
2018-07-12T05:04:10.006Z,17.82
2018-07-12T05:05:09.995Z,17.95
2018-07-12T05:07:02.907Z,17.97
2018-07-12T05:08:02.943Z,18.00
2018-07-12T05:09:55.862Z,17.99
2018-07-12T05:10:55.862Z,18.12
2018-07-12T05:12:48.776Z,18.18
2018-07-12T05:13:48.795Z,18.21
2018-07-12T05:15:41.728Z,18.39
2018-07-12T05:16:41.730Z,18.54
2018-07-12T05:18:34.649Z,18.62
2018-07-12T05:19:34.675Z,18.58
2018-07-12T05:21:28.302Z,18.72
2018-07-12T05:22:28.304Z,18.82
2018-07-12T05:24:21.219Z,18.80
2018-07-12T05:25:21.240Z,18.91
2018-07-12T05:27:14.178Z,18.99
2018-07-12T05:28:14.178Z,19.11
2018-07-12T05:30:07.125Z,19.13
2018-07-12T05:31:07.119Z,19.14
2018-07-12T05:33:00.036Z,19.14
2018-07-12T05:34:00.059Z,19.18
2018-07-12T05:35:53.486Z,19.25
2018-07-12T05:36:53.489Z,19.31
2018-07-12T05:38:46.406Z,19.43
2018-07-12T05:39:46.425Z,19.44
2018-07-12T05:41:39.361Z,19.50
2018-07-12T05:42:39.364Z,19.66
2018-07-12T05:44:32.413Z,19.83
2018-07-12T05:45:32.435Z,19.86
2018-07-12T05:47:25.371Z,19.94
2018-07-12T05:48:25.384Z,20.05
2018-07-12T05:50:18.292Z,20.10
2018-07-12T05:51:18.321Z,20.11
2018-07-12T05:53:11.262Z,20.13
2018-07-12T05:54:11.266Z,20.21
2018-07-12T05:56:04.219Z,20.24
2018-07-12T05:57:04.211Z,20.28
2018-07-12T05:58:57.135Z,20.48
2018-07-12T05:59:57.161Z,20.41
2018-07-12T06:01:50.105Z,20.54
2018-07-12T06:02:50.110Z,20.64
2018-07-12T06:04:43.020Z,20.85
2018-07-12T06:05:43.043Z,20.91
2018-07-12T06:07:35.982Z,20.84
2018-07-12T06:08:35.991Z,20.73
2018-07-12T06:10:28.907Z,20.80
2018-07-12T06:11:28.930Z,20.72
2018-07-12T06:13:21.878Z,20.74
2018-07-12T06:14:21.876Z,20.84
2018-07-12T06:16:14.794Z,20.82
2018-07-12T06:17:14.822Z,20.74
2018-07-12T06:19:07.762Z,20.69
2018-07-12T06:20:07.764Z,20.72
2018-07-12T06:22:00.705Z,20.70
2018-07-12T06:23:00.707Z,20.57
2018-07-12T06:24:53.627Z,20.58
2018-07-12T06:25:53.655Z,20.59
2018-07-12T06:27:46.593Z,20.69
2018-07-12T06:28:46.600Z,20.70
2018-07-12T06:30:39.519Z,20.77
2018-07-12T06:31:39.544Z,20.74
2018-07-12T06:33:32.486Z,20.85
2018-07-12T06:34:32.492Z,20.94
2018-07-12T06:36:25.410Z,20.92
2018-07-12T06:37:25.435Z,20.88
2018-07-12T06:39:18.376Z,20.94
2018-07-12T06:40:18.383Z,20.84
2018-07-12T06:42:11.335Z,20.98
2018-07-12T06:43:11.329Z,21.04
2018-07-12T06:45:04.246Z,21.19
2018-07-12T06:46:04.273Z,21.25
2018-07-12T06:47:57.211Z,21.29
2018-07-12T06:48:57.220Z,21.29
2018-07-12T06:50:50.139Z,21.21
2018-07-12T06:51:50.167Z,21.22
2018-07-12T06:53:43.106Z,21.13
2018-07-12T06:54:43.113Z,21.04
2018-07-12T06:56:36.037Z,20.92
2018-07-12T06:57:36.061Z,21.10
2018-07-12T06:59:29.001Z,21.16
2018-07-12T07:00:29.012Z,21.04
2018-07-12T07:02:21.930Z,21.09
2018-07-12T07:03:21.958Z,20.72
2018-07-12T07:05:14.905Z,20.99
2018-07-12T07:06:14.911Z,21.03
2018-07-12T07:08:07.859Z,20.99
2018-07-12T07:09:07.859Z,21.04
2018-07-12T07:11:00.784Z,21.17
2018-07-12T07:12:00.811Z,21.31
2018-07-12T07:13:53.779Z,21.38
2018-07-12T07:14:53.766Z,21.52
2018-07-12T07:16:46.688Z,21.79
2018-07-12T07:17:46.713Z,21.99
2018-07-12T07:19:39.662Z,22.22
2018-07-12T07:20:39.668Z,22.27
2018-07-12T07:22:32.592Z,22.28
2018-07-12T07:23:32.659Z,22.28
2018-07-12T07:25:25.568Z,22.46
2018-07-12T07:26:25.615Z,22.64
2018-07-12T07:28:19.627Z,22.67
2018-07-12T07:29:19.655Z,22.65
2018-07-12T07:31:12.732Z,22.85
2018-07-12T07:32:12.686Z,22.91
2018-07-12T07:34:05.701Z,22.90
2018-07-12T07:35:05.643Z,23.10
2018-07-12T07:36:58.562Z,23.12
2018-07-12T07:37:58.590Z,23.15
2018-07-12T07:39:59.172Z,23.13
2018-07-12T07:40:52.058Z,23.20
2018-07-12T07:42:44.961Z,23.53
2018-07-12T07:43:45.031Z,23.46
2018-07-12T07:45:37.938Z,23.57
2018-07-12T07:46:37.941Z,23.57
2018-07-12T07:48:30.866Z,23.66
2018-07-12T07:49:30.898Z,23.73
2018-07-12T07:51:23.885Z,23.53
2018-07-12T07:52:23.846Z,23.47
2018-07-12T07:54:16.812Z,23.60
2018-07-12T07:55:16.797Z,23.54
2018-07-12T07:57:09.809Z,23.48
2018-07-12T07:58:09.752Z,23.12
2018-07-12T08:00:02.707Z,23.00
2018-07-12T08:01:02.700Z,22.94
2018-07-12T08:02:55.625Z,22.98
2018-07-12T08:03:55.680Z,23.09
2018-07-12T08:05:48.600Z,23.17
2018-07-12T08:06:48.604Z,23.16
2018-07-12T08:08:41.527Z,23.39
2018-07-12T08:09:41.583Z,23.43
2018-07-12T08:11:34.502Z,23.46
2018-07-12T08:12:34.504Z,23.70
2018-07-12T08:14:27.430Z,23.91
2018-07-12T08:15:27.458Z,24.06
2018-07-12T08:17:20.396Z,23.95
2018-07-12T08:18:20.406Z,23.73
2018-07-12T08:20:13.361Z,23.79
2018-07-12T08:21:13.354Z,23.85
2018-07-12T08:23:06.303Z,23.91
2018-07-12T08:24:06.322Z,23.78
2018-07-12T08:25:59.262Z,23.94
2018-07-12T08:26:59.259Z,24.02
2018-07-12T08:28:52.223Z,23.85
2018-07-12T08:29:52.304Z,23.95
2018-07-12T08:31:45.158Z,23.88
2018-07-12T08:32:45.218Z,23.79
2018-07-12T08:34:38.087Z,23.65
2018-07-12T08:35:38.112Z,23.70
2018-07-12T08:37:31.094Z,23.76
2018-07-12T08:38:31.102Z,23.84
2018-07-12T08:40:24.563Z,23.98
2018-07-12T08:41:24.552Z,24.18
2018-07-12T08:43:17.558Z,24.02
2018-07-12T08:44:17.557Z,24.10
2018-07-12T08:46:10.440Z,24.31
2018-07-12T08:47:10.454Z,24.28
2018-07-12T08:49:03.394Z,24.13
2018-07-12T08:50:03.403Z,24.18
2018-07-12T08:51:56.368Z,24.12
2018-07-12T08:52:56.361Z,24.22
2018-07-12T08:54:49.289Z,24.37
2018-07-12T08:55:49.313Z,24.35
2018-07-12T08:57:42.261Z,24.58
2018-07-12T08:58:42.271Z,24.69
2018-07-12T09:00:35.196Z,24.61
2018-07-12T09:01:35.224Z,24.50
2018-07-12T09:03:28.165Z,24.68
2018-07-12T09:04:28.178Z,24.68
2018-07-12T09:06:21.102Z,24.46
2018-07-12T09:07:21.130Z,24.39
2018-07-12T09:09:14.082Z,24.20
2018-07-12T09:10:14.086Z,24.34
2018-07-12T09:12:07.016Z,24.57
2018-07-12T09:13:07.044Z,24.53
2018-07-12T09:14:59.995Z,24.88
2018-07-12T09:16:00.006Z,25.02
2018-07-12T09:17:52.970Z,25.17
2018-07-12T09:18:52.953Z,25.25
2018-07-12T09:20:45.920Z,25.46
2018-07-12T09:21:45.959Z,25.45
2018-07-12T09:23:38.885Z,25.40
2018-07-12T09:24:38.860Z,25.36
2018-07-12T09:26:31.790Z,25.39
2018-07-12T09:27:31.864Z,25.27
2018-07-12T09:29:24.768Z,25.42
2018-07-12T09:30:24.775Z,25.40
2018-07-12T09:32:17.702Z,25.54
2018-07-12T09:33:17.731Z,25.69
2018-07-12T09:35:10.684Z,25.79
2018-07-12T09:36:10.691Z,25.92
2018-07-12T09:38:03.616Z,25.91
2018-07-12T09:39:03.644Z,25.95
2018-07-12T09:40:56.592Z,25.87
2018-07-12T09:41:56.601Z,25.90
2018-07-12T09:43:49.549Z,25.70
2018-07-12T09:44:49.607Z,25.77
2018-07-12T09:46:42.485Z,25.90
2018-07-12T09:47:42.516Z,26.02
2018-07-12T09:49:35.467Z,26.21
2018-07-12T09:50:35.476Z,26.28
2018-07-12T09:52:28.403Z,26.26
2018-07-12T09:53:28.434Z,26.40
2018-07-12T09:55:21.385Z,26.47
2018-07-12T09:56:21.469Z,26.44
2018-07-12T09:58:14.321Z,26.35
2018-07-12T09:59:14.349Z,26.20
2018-07-12T10:01:07.341Z,26.01
2018-07-12T10:02:07.311Z,26.09
2018-07-12T10:04:00.234Z,26.33
2018-07-12T10:05:00.263Z,26.40
2018-07-12T10:06:53.705Z,26.70
2018-07-12T10:07:53.717Z,26.73
2018-07-12T10:09:46.668Z,26.85
2018-07-12T10:10:46.678Z,26.77
2018-07-12T10:12:39.605Z,26.58
2018-07-12T10:13:39.638Z,26.66
2018-07-12T10:15:32.591Z,26.28
2018-07-12T10:16:32.595Z,26.32
2018-07-12T10:18:25.527Z,26.37
2018-07-12T10:19:25.559Z,26.43
2018-07-12T10:21:18.511Z,26.66
2018-07-12T10:22:18.521Z,26.80
2018-07-12T10:24:11.943Z,26.63
2018-07-12T10:25:11.976Z,26.62
2018-07-12T10:27:05.417Z,26.73
2018-07-12T10:28:05.431Z,26.84
2018-07-12T10:29:58.381Z,26.92
2018-07-12T10:30:58.386Z,26.97
2018-07-12T10:32:51.820Z,26.43
2018-07-12T10:33:51.854Z,26.33
2018-07-12T10:35:44.802Z,25.94
2018-07-12T10:36:44.808Z,25.91
2018-07-12T10:38:37.800Z,25.94
2018-07-12T10:39:37.788Z,25.92
2018-07-12T10:41:30.863Z,26.23
2018-07-12T10:42:30.852Z,26.47
2018-07-12T10:44:23.805Z,26.65
2018-07-12T10:45:23.809Z,26.80
2018-07-12T10:47:16.761Z,26.66
2018-07-12T10:48:16.770Z,26.91
2018-07-12T10:50:09.773Z,26.67
2018-07-12T10:51:09.806Z,26.70
2018-07-12T10:53:02.847Z,26.69
2018-07-12T10:54:02.859Z,26.80
2018-07-12T10:55:55.910Z,26.76
2018-07-12T10:56:55.921Z,26.76
2018-07-12T10:58:49.462Z,26.88
2018-07-12T10:59:49.482Z,26.94
2018-07-12T11:01:42.560Z,26.80
2018-07-12T11:02:42.571Z,26.66
2018-07-12T11:04:35.612Z,26.48
2018-07-12T11:05:35.596Z,26.40
2018-07-12T11:07:28.646Z,26.47
2018-07-12T11:08:28.654Z,26.39
2018-07-12T11:10:22.094Z,26.51
2018-07-12T11:11:22.123Z,26.67
2018-07-12T11:13:15.169Z,26.92
2018-07-12T11:14:15.180Z,27.17
2018-07-12T11:16:08.226Z,27.32
2018-07-12T11:17:08.235Z,27.37
2018-07-12T11:19:01.390Z,27.40
2018-07-12T11:20:01.308Z,27.28
2018-07-12T11:21:54.421Z,27.43
2018-07-12T11:22:54.382Z,27.39
2018-07-12T11:24:47.374Z,27.41
2018-07-12T11:25:47.893Z,27.55
2018-07-12T11:27:40.989Z,27.74
2018-07-12T11:28:42.081Z,27.97
2018-07-12T11:30:34.134Z,27.93
2018-07-12T11:31:34.169Z,27.99
2018-07-12T11:33:28.290Z,28.11
2018-07-12T11:34:28.212Z,28.11
2018-07-12T11:36:21.472Z,28.29
2018-07-12T11:37:21.269Z,28.34
2018-07-12T11:39:14.316Z,28.49
2018-07-12T11:40:14.326Z,28.52
2018-07-12T11:42:07.371Z,28.43
2018-07-12T11:43:07.385Z,28.37
2018-07-12T11:45:00.426Z,28.33
2018-07-12T11:46:00.440Z,28.29
2018-07-12T11:47:53.893Z,28.31
2018-07-12T11:48:53.906Z,28.29
2018-07-12T11:50:47.092Z,27.96
2018-07-12T11:51:47.002Z,27.96
2018-07-12T11:53:40.307Z,27.75
2018-07-12T11:54:40.297Z,27.66
2018-07-12T11:56:33.250Z,27.65
2018-07-12T11:57:33.284Z,27.60
2018-07-12T11:59:26.328Z,27.49
2018-07-12T12:00:26.337Z,27.41
2018-07-12T12:02:19.777Z,27.29
2018-07-12T12:03:19.803Z,27.25
2018-07-12T12:05:12.846Z,26.94
2018-07-12T12:06:12.914Z,26.95
2018-07-12T12:08:06.824Z,27.04
2018-07-12T12:09:06.835Z,27.18
2018-07-12T12:10:59.862Z,27.21
2018-07-12T12:11:59.891Z,27.24
2018-07-12T12:13:52.940Z,27.28
2018-07-12T12:14:52.949Z,27.50
2018-07-12T12:16:45.977Z,27.84
2018-07-12T12:17:46.010Z,27.93
2018-07-12T12:19:39.051Z,28.06
2018-07-12T12:20:39.063Z,28.11
2018-07-12T12:22:32.089Z,27.97
2018-07-12T12:23:32.122Z,27.99
2018-07-12T12:25:25.188Z,28.21
2018-07-12T12:26:25.175Z,28.17
2018-07-12T12:28:18.246Z,28.09
2018-07-12T12:29:18.232Z,28.06
2018-07-12T12:31:11.768Z,27.94
2018-07-12T12:32:11.799Z,27.97
2018-07-12T12:34:04.868Z,27.96
2018-07-12T12:35:04.858Z,27.72
2018-07-12T12:36:57.883Z,27.50
2018-07-12T12:37:57.916Z,27.50
2018-07-12T12:39:50.955Z,27.54
2018-07-12T12:40:51.039Z,27.47
2018-07-12T12:42:43.996Z,27.29
2018-07-12T12:43:44.026Z,27.41
2018-07-12T12:45:37.071Z,27.25
2018-07-12T12:46:37.125Z,27.25
2018-07-12T12:48:30.134Z,27.09
2018-07-12T12:49:30.145Z,27.04
2018-07-12T12:51:23.697Z,26.65
2018-07-12T12:52:23.708Z,26.47
2018-07-12T12:54:26.666Z,26.21
2018-07-12T12:55:26.675Z,26.09
2018-07-12T12:57:19.602Z,25.95
2018-07-12T12:58:19.629Z,25.92
2018-07-12T13:00:12.594Z,25.83
2018-07-12T13:01:12.582Z,25.85
2018-07-12T13:03:05.508Z,25.80
2018-07-12T13:04:05.544Z,25.73
2018-07-12T13:05:58.480Z,25.57
2018-07-12T13:06:58.490Z,25.69
2018-07-12T13:08:51.414Z,26.02
2018-07-12T13:09:51.445Z,25.97
2018-07-12T13:11:44.388Z,26.10
2018-07-12T13:12:44.399Z,26.07
2018-07-12T13:14:37.503Z,26.25
2018-07-12T13:15:37.498Z,26.33
2018-07-12T13:17:30.464Z,26.44
2018-07-12T13:18:30.453Z,26.28
2018-07-12T13:20:23.400Z,26.54
2018-07-12T13:21:23.410Z,26.70
2018-07-12T13:23:16.399Z,27.03
2018-07-12T13:24:16.364Z,27.09
2018-07-12T13:26:09.426Z,27.10
2018-07-12T13:27:09.324Z,27.24
2018-07-12T13:29:02.258Z,27.31
2018-07-12T13:30:02.287Z,27.41
2018-07-12T13:31:55.469Z,27.32
2018-07-12T13:32:55.424Z,27.34
2018-07-12T13:34:48.355Z,27.34
2018-07-12T13:35:48.385Z,27.32
2018-07-12T13:37:41.337Z,27.32
2018-07-12T13:38:41.343Z,27.22
2018-07-12T13:40:34.300Z,27.25
2018-07-12T13:41:34.299Z,27.41
2018-07-12T13:43:27.224Z,27.29
2018-07-12T13:44:27.253Z,27.40
2018-07-12T13:46:20.201Z,27.36
2018-07-12T13:47:20.210Z,27.40
2018-07-12T13:49:14.132Z,27.06
2018-07-12T13:50:14.162Z,26.95
2018-07-12T13:52:07.142Z,26.80
2018-07-12T13:53:07.115Z,26.75
2018-07-12T13:55:00.050Z,26.69
2018-07-12T13:56:00.067Z,26.63
2018-07-12T13:57:53.018Z,26.54
2018-07-12T13:58:53.022Z,26.50
2018-07-12T14:00:45.978Z,26.35
2018-07-12T14:01:45.999Z,26.43
2018-07-12T14:03:38.903Z,26.58
2018-07-12T14:04:38.931Z,26.48
2018-07-12T14:06:31.880Z,26.44
2018-07-12T14:07:31.886Z,26.48
2018-07-12T14:09:24.811Z,26.40
2018-07-12T14:10:24.839Z,26.35
2018-07-12T14:12:17.791Z,26.37
2018-07-12T14:13:17.794Z,26.47
2018-07-12T14:15:10.727Z,26.43
2018-07-12T14:16:10.752Z,26.44
2018-07-12T14:18:03.705Z,26.40
2018-07-12T14:19:03.742Z,26.55
2018-07-12T14:20:56.708Z,26.44
2018-07-12T14:21:56.693Z,26.45
2018-07-12T14:23:49.650Z,26.33
2018-07-12T14:24:49.644Z,26.26
2018-07-12T14:26:42.619Z,26.12
2018-07-12T14:27:42.629Z,26.10
2018-07-12T14:29:35.735Z,25.77
2018-07-12T14:30:35.582Z,25.79
2018-07-12T14:32:28.573Z,25.61
2018-07-12T14:33:28.536Z,25.50
2018-07-12T14:35:21.458Z,25.57
2018-07-12T14:36:21.488Z,25.57
2018-07-12T14:38:14.431Z,25.52
2018-07-12T14:39:14.441Z,25.57
2018-07-12T14:41:07.361Z,25.60
2018-07-12T14:42:07.390Z,25.60
2018-07-12T14:44:00.334Z,25.42
2018-07-12T14:45:00.341Z,25.18
2018-07-12T14:46:53.262Z,24.60
2018-07-12T14:47:53.288Z,24.47
2018-07-12T14:49:46.232Z,24.10
2018-07-12T14:50:46.237Z,23.85
2018-07-12T14:52:40.243Z,23.50
2018-07-12T14:53:40.184Z,23.28
2018-07-12T14:55:33.145Z,22.90
2018-07-12T14:56:33.133Z,22.54
2018-07-12T14:58:26.079Z,22.25
2018-07-12T14:59:26.074Z,22.22
2018-07-12T15:01:26.627Z,21.98
2018-07-12T15:02:19.022Z,21.92
2018-07-12T15:04:11.985Z,21.82
2018-07-12T15:05:11.960Z,21.77
2018-07-12T15:07:04.874Z,21.77
2018-07-12T15:08:04.899Z,21.68
2018-07-12T15:09:57.892Z,21.65
2018-07-12T15:10:57.851Z,21.59
2018-07-12T15:12:50.769Z,21.44
2018-07-12T15:13:50.798Z,21.38
2018-07-12T15:15:43.731Z,21.35
2018-07-12T15:16:43.744Z,21.25
2018-07-12T15:18:36.674Z,21.25
2018-07-12T15:19:36.678Z,21.32
2018-07-12T15:21:29.593Z,21.25
2018-07-12T15:22:29.618Z,21.29
2018-07-12T15:24:22.553Z,21.29
2018-07-12T15:25:22.568Z,21.29
2018-07-12T15:27:15.499Z,21.25
2018-07-12T15:28:15.500Z,21.42
2018-07-12T15:30:08.978Z,21.47
2018-07-12T15:31:08.935Z,21.47
2018-07-12T15:33:01.919Z,21.61
2018-07-12T15:34:01.877Z,21.68
2018-07-12T15:35:54.818Z,21.69
2018-07-12T15:36:54.867Z,21.72
2018-07-12T15:38:48.759Z,21.82
2018-07-12T15:39:48.761Z,21.80
2018-07-12T15:41:41.696Z,21.91
2018-07-12T15:42:41.706Z,22.05
2018-07-12T15:44:34.672Z,22.02
2018-07-12T15:45:34.653Z,22.09
2018-07-12T15:47:27.583Z,22.20
2018-07-12T15:48:27.606Z,22.20
2018-07-12T15:50:20.578Z,22.27
2018-07-12T15:51:20.549Z,22.30
2018-07-12T15:53:13.463Z,22.24
2018-07-12T15:54:13.492Z,22.31
2018-07-12T15:56:06.434Z,22.31
2018-07-12T15:57:06.434Z,22.30
2018-07-12T15:58:59.372Z,22.46
2018-07-12T15:59:59.376Z,22.49
2018-07-12T16:01:52.329Z,22.49
2018-07-12T16:02:52.330Z,22.54
2018-07-12T16:04:45.277Z,22.49
2018-07-12T16:05:45.316Z,22.55
2018-07-12T16:07:38.246Z,22.60
2018-07-12T16:08:38.226Z,22.60
2018-07-12T16:10:31.164Z,22.57
2018-07-12T16:11:31.170Z,22.55
2018-07-12T16:13:24.200Z,22.70
2018-07-12T16:14:24.182Z,22.72
2018-07-12T16:16:17.057Z,22.83
2018-07-12T16:17:17.059Z,22.95
2018-07-12T16:19:10.004Z,22.97
2018-07-12T16:20:10.005Z,23.02
2018-07-12T16:22:03.001Z,23.09
2018-07-12T16:23:02.952Z,23.02
2018-07-12T16:24:55.891Z,23.04
2018-07-12T16:25:56.000Z,23.19
2018-07-12T16:27:48.820Z,23.22
2018-07-12T16:28:48.846Z,23.31
2018-07-12T16:30:41.945Z,23.36
2018-07-12T16:31:42.509Z,23.40
2018-07-12T16:33:34.873Z,23.51
2018-07-12T16:34:34.899Z,23.48
2018-07-12T16:36:27.886Z,23.51
2018-07-12T16:37:27.948Z,23.47
2018-07-12T16:39:20.798Z,23.51
2018-07-12T16:40:20.881Z,23.50
2018-07-12T16:42:13.983Z,23.51
2018-07-12T16:43:13.777Z,23.50
2018-07-12T16:45:06.830Z,23.57
2018-07-12T16:46:06.732Z,23.60
2018-07-12T16:47:59.678Z,23.53
2018-07-12T16:48:59.688Z,23.60
2018-07-12T16:50:52.828Z,23.68
2018-07-12T16:51:52.843Z,23.73
2018-07-12T16:53:45.837Z,23.68
2018-07-12T16:54:45.848Z,23.60
2018-07-12T16:56:39.329Z,23.60
2018-07-12T16:57:38.734Z,23.58
2018-07-12T16:59:31.767Z,23.55
2018-07-12T17:00:31.783Z,23.51
2018-07-12T17:02:24.972Z,23.57
2018-07-12T17:03:24.972Z,23.50
2018-07-12T17:05:17.788Z,23.53
2018-07-12T17:06:17.981Z,23.48
2018-07-12T17:08:10.692Z,23.35
2018-07-12T17:09:10.748Z,23.22
2018-07-12T17:11:03.668Z,23.02
2018-07-12T17:12:03.688Z,22.92
2018-07-12T17:13:56.640Z,22.94
2018-07-12T17:14:56.624Z,22.83
2018-07-12T17:16:50.589Z,22.73
2018-07-12T17:17:50.583Z,22.79
2018-07-12T17:19:43.578Z,22.65
2018-07-12T17:20:43.528Z,22.64
2018-07-12T17:22:36.446Z,22.62
2018-07-12T17:23:36.512Z,22.58
2018-07-12T17:25:29.429Z,22.72
2018-07-12T17:26:29.427Z,22.73
2018-07-12T17:28:22.349Z,22.88
2018-07-12T17:29:22.378Z,22.88
2018-07-12T17:31:15.878Z,22.85
2018-07-12T17:32:15.820Z,22.92
2018-07-12T17:34:08.738Z,22.83
2018-07-12T17:35:08.767Z,22.86
2018-07-12T17:37:02.017Z,22.83
2018-07-12T17:38:01.936Z,22.85
2018-07-12T17:39:54.877Z,22.86
2018-07-12T17:40:54.887Z,22.86
2018-07-12T17:42:47.804Z,22.76
2018-07-12T17:43:47.852Z,22.75
2018-07-12T17:45:40.768Z,22.88
2018-07-12T17:46:40.813Z,22.82
2018-07-12T17:48:33.692Z,22.79
2018-07-12T17:49:33.721Z,22.88
2018-07-12T17:51:26.683Z,22.83
2018-07-12T17:52:26.667Z,22.88
2018-07-12T17:54:19.587Z,22.80
2018-07-12T17:55:19.615Z,22.79
2018-07-12T17:57:12.589Z,22.85
2018-07-12T17:58:12.575Z,22.86
2018-07-12T18:00:05.515Z,22.88
2018-07-12T18:01:05.530Z,22.83
2018-07-12T18:02:58.444Z,22.72
2018-07-12T18:03:58.469Z,22.80
2018-07-12T18:05:51.901Z,22.80
2018-07-12T18:06:51.908Z,22.72
2018-07-12T18:08:44.895Z,22.75
2018-07-12T18:09:44.890Z,22.76
2018-07-12T18:11:37.822Z,22.79
2018-07-12T18:12:37.832Z,22.75
2018-07-12T18:14:30.746Z,22.70
2018-07-12T18:15:30.776Z,22.73
2018-07-12T18:17:23.711Z,22.77
2018-07-12T18:18:23.713Z,22.72
2018-07-12T18:20:16.656Z,22.77
2018-07-12T18:21:16.662Z,22.77
2018-07-12T18:23:09.575Z,22.73
2018-07-12T18:24:09.606Z,22.82
2018-07-12T18:26:02.544Z,22.83
2018-07-12T18:27:02.573Z,22.75
2018-07-12T18:28:55.696Z,22.88
2018-07-12T18:29:55.725Z,22.90
2018-07-12T18:31:48.664Z,22.85
2018-07-12T18:32:48.669Z,22.86
2018-07-12T18:34:41.591Z,22.83